Milwaukee, Wisconsin
Traffic Map
Current Weather Conditions
Milwaukee, Wisconsin
Few Clouds
Few Clouds
-7°
Feels Like: -11°
Wind Chill: -11° Ceiling: Unl
Heat Index: -7° Visibility: 10mi
Dew Point: -12° Wind: 5mph
Humidity: 71% Direction: 290° (WNW)
Pressure: 30.27in Gusts: 0mph
Raw Report DataKMKE 281052Z 29004KT 10SM FEW055 M07/M12 A3027 RMK AO2 SLP262 T10721117
Traffic Incident Summary
Active as of:
Severity:
Category:
InformationThere was an issue retrieving the traffic information for this location. Please try a different location or try again shortly.
Advertisements
Track Severe Weather on mobile